createdAt,value
2018-12-16T00:01:31.726Z,37.30
2018-12-16T00:04:00.526Z,34.27
2018-12-16T00:06:29.114Z,33.33
2018-12-16T00:08:57.811Z,34.87
2018-12-16T00:13:50.623Z,37.90
2018-12-16T00:16:19.219Z,38.00
2018-12-16T00:18:47.911Z,32.40
2018-12-16T00:21:16.519Z,36.67
2018-12-16T00:23:45.108Z,35.93
2018-12-16T00:26:14.136Z,36.83
2018-12-16T00:28:42.710Z,40.93
2018-12-16T00:31:11.296Z,36.43
2018-12-16T00:33:39.878Z,34.27
2018-12-16T00:36:08.658Z,36.93
2018-12-16T00:38:37.264Z,40.93
2018-12-16T00:41:06.069Z,39.50
2018-12-16T00:43:34.632Z,38.97
2018-12-16T00:46:03.264Z,46.70
2018-12-16T00:48:31.834Z,45.97
2018-12-16T00:51:00.639Z,40.80
2018-12-16T00:53:29.226Z,39.20
2018-12-16T00:55:58.041Z,43.37
2018-12-16T00:58:26.673Z,42.20
2018-12-16T01:00:55.627Z,36.23
2018-12-16T01:03:24.192Z,40.60
2018-12-16T01:05:53.107Z,41.47
2018-12-16T01:08:21.684Z,37.33
2018-12-16T01:10:50.300Z,32.93
2018-12-16T01:13:18.872Z,29.83
2018-12-16T01:15:47.718Z,35.50
2018-12-16T01:18:16.277Z,36.00
2018-12-16T01:20:44.879Z,33.27
2018-12-16T01:23:13.483Z,31.70
2018-12-16T01:25:42.074Z,36.00
2018-12-16T01:28:10.658Z,36.40
2018-12-16T01:30:39.246Z,35.67
2018-12-16T01:33:07.836Z,34.93
2018-12-16T01:35:36.565Z,34.23
2018-12-16T01:38:05.268Z,29.43
2018-12-16T01:40:33.883Z,32.33
2018-12-16T01:43:02.459Z,34.43
2018-12-16T01:45:31.329Z,32.53
2018-12-16T01:47:59.906Z,33.50
2018-12-16T01:50:28.508Z,34.57
2018-12-16T01:52:57.043Z,30.47
2018-12-16T01:55:25.879Z,31.33
2018-12-16T01:57:54.514Z,35.03
2018-12-16T02:00:23.168Z,35.70
2018-12-16T02:02:51.774Z,34.33
2018-12-16T02:05:20.738Z,32.33
2018-12-16T02:07:49.309Z,29.17
2018-12-16T02:10:18.050Z,31.63
2018-12-16T02:12:46.672Z,30.23
2018-12-16T02:15:15.591Z,28.40
2018-12-16T02:17:44.159Z,28.17
2018-12-16T02:20:12.873Z,27.40
2018-12-16T02:22:41.430Z,28.50
2018-12-16T02:25:10.272Z,28.57
2018-12-16T02:27:38.843Z,28.20
2018-12-16T02:30:09.628Z,29.80
2018-12-16T02:32:38.303Z,27.83
2018-12-16T02:35:06.912Z,25.80
2018-12-16T02:37:35.496Z,28.10
2018-12-16T02:40:04.506Z,28.53
2018-12-16T02:42:33.283Z,28.90
2018-12-16T02:45:01.944Z,33.27
2018-12-16T02:47:30.504Z,29.00
2018-12-16T02:49:59.116Z,26.67
2018-12-16T02:52:27.671Z,31.20
2018-12-16T02:54:56.246Z,30.77
2018-12-16T02:57:24.821Z,27.40
2018-12-16T02:59:53.638Z,28.70
2018-12-16T03:02:22.190Z,27.03
2018-12-16T03:04:50.772Z,32.00
2018-12-16T03:07:19.349Z,29.60
2018-12-16T03:09:48.205Z,27.93
2018-12-16T03:12:16.750Z,30.93
2018-12-16T03:14:45.522Z,28.67
2018-12-16T03:17:14.069Z,30.27
2018-12-16T03:19:42.802Z,30.23
2018-12-16T03:22:11.389Z,32.07
2018-12-16T03:24:40.207Z,27.03
2018-12-16T03:27:08.813Z,29.03
2018-12-16T03:29:37.391Z,27.23
2018-12-16T03:32:05.967Z,28.67
2018-12-16T03:34:34.846Z,29.33
2018-12-16T03:37:03.407Z,32.67
2018-12-16T03:39:32.197Z,29.60
2018-12-16T03:42:00.937Z,28.23
2018-12-16T03:44:29.572Z,27.63
2018-12-16T03:46:58.162Z,26.03
2018-12-16T03:49:26.902Z,27.93
2018-12-16T03:51:55.467Z,29.53
2018-12-16T03:54:24.365Z,27.53
2018-12-16T03:56:52.938Z,25.57
2018-12-16T03:59:21.680Z,26.43
2018-12-16T04:01:57.226Z,26.57
2018-12-16T04:04:26.609Z,23.40
2018-12-16T04:06:55.467Z,25.60
2018-12-16T04:09:24.301Z,26.33
2018-12-16T04:11:52.963Z,24.53
2018-12-16T04:14:21.764Z,25.17
2018-12-16T04:16:50.313Z,22.70
2018-12-16T04:19:19.144Z,24.60
2018-12-16T04:21:47.671Z,21.40
2018-12-16T04:24:16.700Z,25.20
2018-12-16T04:26:45.261Z,25.70
2018-12-16T04:29:13.851Z,28.73
2018-12-16T04:31:42.468Z,24.73
2018-12-16T04:34:11.046Z,24.07
2018-12-16T04:36:39.637Z,25.60
2018-12-16T04:39:08.254Z,24.53
2018-12-16T04:41:36.895Z,23.60
2018-12-16T04:44:07.188Z,24.43
2018-12-16T04:46:35.986Z,28.80
2018-12-16T04:49:05.007Z,26.80
2018-12-16T04:51:33.586Z,27.10
2018-12-16T04:54:02.171Z,26.87
2018-12-16T04:56:30.741Z,26.33
2018-12-16T04:58:59.326Z,27.10
2018-12-16T05:01:27.908Z,24.40
2018-12-16T05:03:56.790Z,26.40
2018-12-16T05:06:25.402Z,25.17
2018-12-16T05:08:54.156Z,27.87
2018-12-16T05:11:22.700Z,24.60
2018-12-16T05:13:51.316Z,23.93
2018-12-16T05:16:19.897Z,28.83
2018-12-16T05:18:48.732Z,25.23
2018-12-16T05:21:17.310Z,26.50
2018-12-16T05:23:46.109Z,26.03
2018-12-16T05:26:14.718Z,25.27
2018-12-16T05:28:43.586Z,29.53
2018-12-16T05:31:12.167Z,26.73
2018-12-16T05:33:40.949Z,29.97
2018-12-16T05:36:09.528Z,30.67
2018-12-16T05:38:38.149Z,27.73
2018-12-16T05:41:06.752Z,30.67
2018-12-16T05:43:35.399Z,27.17
2018-12-16T05:46:03.982Z,26.47
2018-12-16T05:48:32.621Z,32.03
2018-12-16T05:51:01.169Z,24.20
2018-12-16T05:53:29.944Z,31.47
2018-12-16T05:55:58.523Z,28.03
2018-12-16T05:58:27.110Z,29.03
2018-12-16T06:00:55.676Z,29.10
2018-12-16T06:03:24.302Z,28.93
2018-12-16T06:05:52.988Z,27.13
2018-12-16T06:08:21.646Z,31.33
2018-12-16T06:10:50.252Z,31.67
2018-12-16T06:13:18.949Z,31.57
2018-12-16T06:15:47.548Z,43.07
2018-12-16T06:18:16.160Z,34.13
2018-12-16T06:20:44.734Z,34.33
2018-12-16T06:23:13.419Z,36.33
2018-12-16T06:25:41.998Z,33.80
2018-12-16T06:28:10.704Z,30.20
2018-12-16T06:30:39.690Z,31.83
2018-12-16T06:33:08.604Z,32.33
2018-12-16T06:35:37.188Z,33.07
2018-12-16T06:38:05.967Z,31.20
2018-12-16T06:40:34.569Z,108.40
2018-12-16T06:43:03.347Z,60.20
2018-12-16T06:45:31.922Z,38.17
2018-12-16T06:48:00.709Z,33.50
2018-12-16T06:50:29.256Z,32.10
2018-12-16T06:52:58.112Z,36.00
2018-12-16T06:55:26.695Z,73.17
2018-12-16T06:57:55.634Z,55.40
2018-12-16T07:00:24.220Z,73.97
2018-12-16T07:02:56.007Z,57.77
2018-12-16T07:05:24.592Z,49.97
2018-12-16T07:07:53.429Z,64.10
2018-12-16T07:10:22.040Z,60.47
2018-12-16T07:12:51.025Z,43.27
2018-12-16T07:15:19.584Z,35.60
2018-12-16T07:17:48.489Z,39.87
2018-12-16T07:20:17.086Z,40.13
2018-12-16T07:22:47.149Z,40.23
2018-12-16T07:25:16.000Z,40.43
2018-12-16T07:27:44.771Z,81.20
2018-12-16T07:30:13.343Z,74.13
2018-12-16T07:32:42.180Z,70.30
2018-12-16T07:35:10.798Z,69.10
2018-12-16T07:37:40.792Z,71.20
2018-12-16T07:40:09.614Z,88.13
2018-12-16T07:42:38.407Z,95.40
2018-12-16T07:45:07.732Z,82.50
2018-12-16T07:47:36.565Z,69.83
2018-12-16T07:50:06.624Z,77.60
2018-12-16T07:52:35.745Z,58.53
2018-12-16T07:55:04.763Z,57.70
2018-12-16T07:57:33.851Z,46.40
2018-12-16T08:00:02.417Z,42.00
2018-12-16T08:02:31.352Z,37.73
2018-12-16T08:04:59.903Z,41.83
2018-12-16T08:07:28.584Z,38.60
2018-12-16T08:09:57.185Z,43.47
2018-12-16T08:12:26.223Z,43.73
2018-12-16T08:14:54.893Z,51.10
2018-12-16T08:17:23.861Z,49.17
2018-12-16T08:19:52.431Z,55.40
2018-12-16T08:22:21.141Z,51.47
2018-12-16T08:24:49.708Z,49.80
2018-12-16T08:27:18.472Z,54.17
2018-12-16T08:29:47.236Z,64.17
2018-12-16T08:32:16.033Z,66.67
2018-12-16T08:34:44.595Z,70.87
2018-12-16T08:37:13.333Z,69.17
2018-12-16T08:39:42.573Z,59.27
2018-12-16T08:42:11.621Z,65.73
2018-12-16T08:44:40.173Z,60.60
2018-12-16T08:47:08.786Z,64.60
2018-12-16T08:49:37.379Z,71.40
2018-12-16T08:52:06.276Z,80.47
2018-12-16T08:54:35.225Z,72.93
2018-12-16T08:57:04.001Z,77.53
2018-12-16T08:59:32.572Z,56.70
2018-12-16T09:02:01.167Z,93.33
2018-12-16T09:04:29.718Z,93.90
2018-12-16T09:06:58.535Z,81.40
2018-12-16T09:09:27.609Z,71.57
2018-12-16T09:11:56.227Z,75.03
2018-12-16T09:14:24.886Z,67.00
2018-12-16T09:16:53.767Z,73.93
2018-12-16T09:19:22.448Z,75.93
2018-12-16T09:21:51.253Z,80.37
2018-12-16T09:24:19.811Z,71.63
2018-12-16T09:26:48.523Z,69.50
2018-12-16T09:29:17.127Z,79.27
2018-12-16T09:31:46.864Z,81.93
2018-12-16T09:34:15.645Z,74.83
2018-12-16T09:36:44.608Z,68.83
2018-12-16T09:39:13.395Z,72.80
2018-12-16T09:41:42.508Z,865.83
2018-12-16T09:44:11.096Z,93.37
2018-12-16T09:46:40.052Z,64.13
2018-12-16T09:49:08.652Z,59.90
2018-12-16T09:51:37.682Z,68.87
2018-12-16T09:54:06.277Z,69.83
2018-12-16T09:56:34.931Z,78.50
2018-12-16T09:59:03.590Z,82.03
2018-12-16T10:01:32.445Z,70.37
2018-12-16T10:04:01.198Z,83.17
2018-12-16T10:06:30.154Z,80.77
2018-12-16T10:08:58.748Z,85.13
2018-12-16T10:11:27.404Z,86.50
2018-12-16T10:13:55.988Z,81.67
2018-12-16T10:16:24.838Z,97.33
2018-12-16T10:18:53.454Z,94.63
2018-12-16T10:21:22.409Z,84.93
2018-12-16T10:23:51.411Z,85.50
2018-12-16T10:26:20.300Z,83.80
2018-12-16T10:28:49.201Z,79.80
2018-12-16T10:31:17.914Z,81.67
2018-12-16T10:33:46.729Z,91.50
2018-12-16T10:36:15.656Z,91.70
2018-12-16T10:38:44.267Z,90.60
2018-12-16T10:41:13.088Z,91.43
2018-12-16T10:43:41.731Z,94.30
2018-12-16T10:46:10.593Z,87.00
2018-12-16T10:48:39.655Z,82.10
2018-12-16T10:51:08.449Z,69.33
2018-12-16T10:53:37.159Z,70.57
2018-12-16T10:56:06.257Z,72.03
2018-12-16T10:58:34.932Z,72.80
2018-12-16T11:01:09.120Z,82.00
2018-12-16T11:03:38.022Z,85.10
2018-12-16T11:06:06.760Z,87.73
2018-12-16T11:08:35.584Z,83.33
2018-12-16T11:11:04.606Z,92.03
2018-12-16T11:13:33.273Z,85.73
2018-12-16T11:16:02.345Z,90.53
2018-12-16T11:18:31.220Z,89.83
2018-12-16T11:21:00.061Z,93.00
2018-12-16T11:23:28.921Z,93.77
2018-12-16T11:25:58.188Z,91.20
2018-12-16T11:28:26.883Z,100.53
2018-12-16T11:30:55.791Z,99.57
2018-12-16T11:33:24.581Z,102.50
2018-12-16T11:35:53.566Z,101.93
2018-12-16T11:38:22.428Z,102.70
2018-12-16T11:40:51.328Z,102.03
2018-12-16T11:43:19.954Z,115.90
2018-12-16T11:45:49.305Z,103.27
2018-12-16T11:48:18.311Z,107.37
2018-12-16T11:50:47.676Z,119.20
2018-12-16T11:53:16.459Z,111.83
2018-12-16T11:55:45.952Z,85.30
2018-12-16T11:58:14.721Z,86.93
2018-12-16T12:00:43.659Z,102.07
2018-12-16T12:03:12.685Z,83.27
2018-12-16T12:05:41.974Z,76.77
2018-12-16T12:08:10.876Z,73.00
2018-12-16T12:10:39.985Z,76.47
2018-12-16T12:13:08.596Z,70.77
2018-12-16T12:15:37.588Z,68.63
2018-12-16T12:18:06.292Z,70.90
2018-12-16T12:20:35.463Z,70.23
2018-12-16T12:23:04.469Z,63.80
2018-12-16T12:25:33.375Z,77.57
2018-12-16T12:28:01.989Z,80.90
2018-12-16T12:30:30.883Z,72.73
2018-12-16T12:32:59.803Z,68.70
2018-12-16T12:35:28.741Z,69.47
2018-12-16T12:37:57.563Z,70.70
2018-12-16T12:40:26.239Z,72.67
2018-12-16T12:42:54.831Z,73.27
2018-12-16T12:45:23.693Z,78.47
2018-12-16T12:47:52.285Z,75.40
2018-12-16T12:50:21.236Z,76.73
2018-12-16T12:52:49.862Z,67.10
2018-12-16T12:55:18.592Z,72.13
2018-12-16T12:57:47.420Z,70.80
2018-12-16T13:00:16.189Z,65.53
2018-12-16T13:02:44.928Z,63.93
2018-12-16T13:05:13.630Z,69.50
2018-12-16T13:07:42.195Z,58.43
2018-12-16T13:10:12.679Z,63.33
2018-12-16T13:12:41.282Z,67.07
2018-12-16T13:15:09.893Z,69.10
2018-12-16T13:17:38.505Z,65.00
2018-12-16T13:20:07.827Z,66.83
2018-12-16T13:22:36.425Z,62.03
2018-12-16T13:25:16.455Z,64.50
2018-12-16T13:27:45.033Z,69.50
2018-12-16T13:30:14.037Z,71.57
2018-12-16T13:32:42.657Z,52.30
2018-12-16T13:35:11.638Z,52.13
2018-12-16T13:37:47.055Z,60.27
2018-12-16T13:40:15.999Z,55.30
2018-12-16T13:42:44.806Z,55.80
2018-12-16T13:45:13.948Z,52.37
2018-12-16T13:47:42.777Z,46.03
2018-12-16T13:50:11.536Z,30.73
2018-12-16T13:52:40.104Z,35.97
2018-12-16T13:55:09.054Z,36.73
2018-12-16T13:57:38.250Z,32.27
2018-12-16T14:00:08.575Z,34.30
2018-12-16T14:02:37.229Z,32.10
2018-12-16T14:05:06.740Z,31.73
2018-12-16T14:07:35.528Z,35.50
2018-12-16T14:10:04.860Z,40.23
2018-12-16T14:12:33.721Z,36.83
2018-12-16T14:15:02.580Z,37.70
2018-12-16T14:17:31.346Z,36.37
2018-12-16T14:20:01.580Z,31.37
2018-12-16T14:22:30.542Z,38.13
2018-12-16T14:24:59.467Z,33.63
2018-12-16T14:27:28.242Z,35.00
2018-12-16T14:29:57.203Z,28.97
2018-12-16T14:32:25.889Z,37.23
2018-12-16T14:34:54.905Z,37.57
2018-12-16T14:37:23.968Z,32.77
2018-12-16T14:39:53.068Z,34.50
2018-12-16T14:42:21.765Z,37.93
2018-12-16T14:44:50.752Z,33.93
2018-12-16T14:47:19.450Z,42.63
2018-12-16T14:49:48.398Z,50.60
2018-12-16T14:52:17.139Z,48.63
2018-12-16T14:54:46.156Z,43.67
2018-12-16T14:57:14.886Z,46.47
2018-12-16T14:59:43.677Z,44.47
2018-12-16T15:02:12.358Z,48.07
2018-12-16T15:04:41.173Z,49.20
2018-12-16T15:07:10.580Z,46.23
2018-12-16T15:09:39.464Z,55.97
2018-12-16T15:12:08.235Z,47.07
2018-12-16T15:14:37.556Z,49.47
2018-12-16T15:17:06.279Z,41.30
2018-12-16T15:19:35.194Z,36.40
2018-12-16T15:22:04.040Z,34.37
2018-12-16T15:24:33.063Z,38.27
2018-12-16T15:27:01.669Z,38.90
2018-12-16T15:29:30.625Z,51.60
2018-12-16T15:31:59.464Z,60.57
2018-12-16T15:34:28.482Z,61.30
2018-12-16T15:36:57.110Z,83.13
2018-12-16T15:39:26.211Z,90.57
2018-12-16T15:41:54.800Z,93.70
2018-12-16T15:44:23.901Z,88.63
2018-12-16T15:46:52.603Z,80.20
2018-12-16T15:49:21.271Z,72.83
2018-12-16T15:51:49.905Z,85.63
2018-12-16T15:54:18.843Z,142.97
2018-12-16T15:56:47.804Z,138.43
2018-12-16T15:59:16.672Z,117.77
2018-12-16T16:01:45.253Z,112.90
2018-12-16T16:04:14.105Z,115.37
2018-12-16T16:06:42.863Z,178.60
2018-12-16T16:09:11.770Z,133.33
2018-12-16T16:11:40.385Z,128.03
2018-12-16T16:14:09.405Z,162.90
2018-12-16T16:16:38.226Z,136.97
2018-12-16T16:19:07.630Z,145.17
2018-12-16T16:21:36.299Z,144.03
2018-12-16T16:24:05.223Z,148.00
2018-12-16T16:26:33.963Z,148.37
2018-12-16T16:29:03.195Z,141.67
2018-12-16T16:31:32.712Z,158.13
2018-12-16T16:34:01.912Z,172.07
2018-12-16T16:36:30.620Z,161.77
2018-12-16T16:38:59.543Z,165.40
2018-12-16T16:41:28.136Z,119.70
2018-12-16T16:43:56.777Z,88.43
2018-12-16T16:46:25.350Z,92.33
2018-12-16T16:48:54.800Z,82.80
2018-12-16T16:51:23.480Z,85.80
2018-12-16T16:53:52.116Z,89.37
2018-12-16T16:56:23.082Z,82.57
2018-12-16T16:58:51.595Z,80.90
2018-12-16T17:01:20.199Z,83.07
2018-12-16T17:03:49.368Z,95.97
2018-12-16T17:06:17.904Z,97.20
2018-12-16T17:08:46.565Z,83.13
2018-12-16T17:11:15.839Z,87.77
2018-12-16T17:13:44.859Z,88.03
2018-12-16T17:16:13.482Z,84.40
2018-12-16T17:18:42.457Z,80.13
2018-12-16T17:21:11.837Z,94.30
2018-12-16T17:23:40.888Z,90.53
2018-12-16T17:26:09.761Z,89.63
2018-12-16T17:28:38.846Z,91.33
2018-12-16T17:31:07.615Z,79.43
2018-12-16T17:33:36.509Z,83.13
2018-12-16T17:36:05.081Z,79.10
2018-12-16T17:38:33.818Z,90.20
2018-12-16T17:41:02.388Z,88.07
2018-12-16T17:43:31.306Z,82.83
2018-12-16T17:45:59.863Z,94.10
2018-12-16T17:48:29.024Z,100.90
2018-12-16T17:50:57.636Z,110.57
2018-12-16T17:53:26.580Z,98.40
2018-12-16T17:55:55.409Z,96.63
2018-12-16T17:58:24.922Z,85.90
2018-12-16T18:00:53.775Z,80.17
2018-12-16T18:03:22.943Z,85.77
2018-12-16T18:05:51.586Z,91.93
2018-12-16T18:08:20.718Z,89.73
2018-12-16T18:10:49.318Z,74.07
2018-12-16T18:13:18.079Z,81.87
2018-12-16T18:15:46.773Z,85.27
2018-12-16T18:18:15.443Z,84.97
2018-12-16T18:20:44.030Z,86.43
2018-12-16T18:23:13.055Z,82.67
2018-12-16T18:25:41.656Z,87.67
2018-12-16T18:28:10.840Z,84.70
2018-12-16T18:30:39.801Z,86.07
2018-12-16T18:33:09.277Z,80.60
2018-12-16T18:35:38.096Z,88.23
2018-12-16T18:38:07.099Z,82.03
2018-12-16T18:40:35.906Z,86.20
2018-12-16T18:43:04.925Z,81.30
2018-12-16T18:45:33.564Z,87.83
2018-12-16T18:48:02.349Z,84.93
2018-12-16T18:50:31.016Z,86.33
2018-12-16T18:52:59.739Z,93.10
2018-12-16T18:55:28.560Z,88.10
2018-12-16T18:57:57.184Z,85.20
2018-12-16T19:00:25.960Z,103.17
2018-12-16T19:03:01.405Z,110.07
2018-12-16T19:05:30.175Z,119.23
2018-12-16T19:07:58.929Z,122.77
2018-12-16T19:10:27.631Z,134.93
2018-12-16T19:12:56.527Z,125.37
2018-12-16T19:15:25.107Z,119.13
2018-12-16T19:17:54.044Z,112.60
2018-12-16T19:20:22.649Z,94.17
2018-12-16T19:22:51.557Z,86.77
2018-12-16T19:25:20.321Z,88.77
2018-12-16T19:27:49.388Z,94.63
2018-12-16T19:30:18.112Z,84.13
2018-12-16T19:32:46.864Z,85.07
2018-12-16T19:35:15.498Z,89.87
2018-12-16T19:37:44.751Z,92.27
2018-12-16T19:40:13.532Z,99.37
2018-12-16T19:42:42.326Z,95.93
2018-12-16T19:45:10.915Z,97.23
2018-12-16T19:47:39.814Z,89.30
2018-12-16T19:50:09.434Z,90.53
2018-12-16T19:52:38.856Z,92.17
2018-12-16T19:55:08.110Z,96.47
2018-12-16T19:57:37.670Z,91.37
2018-12-16T20:00:07.509Z,84.87
2018-12-16T20:02:36.983Z,90.53
2018-12-16T20:05:08.565Z,88.57
2018-12-16T20:07:37.772Z,92.83
2018-12-16T20:10:06.976Z,94.60
2018-12-16T20:12:36.324Z,109.27
2018-12-16T20:15:06.348Z,145.07
2018-12-16T20:17:35.343Z,145.07
2018-12-16T20:20:04.792Z,119.27
2018-12-16T20:22:34.274Z,110.00
2018-12-16T20:25:03.572Z,102.87
2018-12-16T20:27:32.800Z,165.67
2018-12-16T20:30:02.474Z,182.17
2018-12-16T20:32:32.074Z,144.20
2018-12-16T20:35:01.367Z,207.00
2018-12-16T20:37:31.022Z,209.30
2018-12-16T20:40:00.426Z,201.07
2018-12-16T20:42:29.635Z,158.63
2018-12-16T20:44:58.705Z,171.90
2018-12-16T20:47:28.129Z,160.27
2018-12-16T20:49:57.433Z,156.23
2018-12-16T20:52:26.939Z,146.47
2018-12-16T20:54:55.923Z,138.70
2018-12-16T20:57:25.575Z,146.57
2018-12-16T20:59:54.970Z,135.27
2018-12-16T21:02:26.020Z,128.10
2018-12-16T21:04:55.843Z,133.93
2018-12-16T21:07:24.798Z,136.33
2018-12-16T21:09:53.891Z,134.57
2018-12-16T21:12:28.302Z,125.03
2018-12-16T21:15:02.509Z,158.60
2018-12-16T21:17:36.976Z,177.07
2018-12-16T21:20:06.322Z,159.40
2018-12-16T21:22:35.259Z,181.07
2018-12-16T21:25:04.233Z,170.40
2018-12-16T21:27:34.390Z,178.33
2018-12-16T21:30:03.342Z,166.77
2018-12-16T21:32:33.105Z,180.20
2018-12-16T21:35:01.705Z,175.20
2018-12-16T21:37:30.688Z,174.00
2018-12-16T21:39:59.413Z,198.10
2018-12-16T21:42:28.246Z,209.13
2018-12-16T21:44:56.941Z,209.40
2018-12-16T21:47:25.855Z,234.07
2018-12-16T21:49:54.447Z,235.60
2018-12-16T21:52:23.580Z,250.13
2018-12-16T21:54:52.383Z,248.77
2018-12-16T21:57:21.345Z,248.90
2018-12-16T21:59:50.070Z,263.13
2018-12-16T22:02:18.865Z,269.83
2018-12-16T22:04:47.546Z,281.47
2018-12-16T22:07:16.278Z,268.70
2018-12-16T22:09:44.916Z,267.37
2018-12-16T22:12:14.275Z,246.43
2018-12-16T22:14:43.320Z,241.13
2018-12-16T22:17:12.349Z,236.13
2018-12-16T22:19:41.396Z,214.27
2018-12-16T22:22:10.406Z,191.30
2018-12-16T22:24:39.643Z,186.63
2018-12-16T22:27:08.587Z,187.30
2018-12-16T22:29:37.330Z,183.57
2018-12-16T22:32:06.132Z,173.07
2018-12-16T22:34:34.914Z,158.67
2018-12-16T22:37:03.976Z,160.33
2018-12-16T22:39:32.793Z,150.93
2018-12-16T22:42:01.697Z,159.33
2018-12-16T22:44:31.294Z,154.37
2018-12-16T22:47:00.224Z,150.23
2018-12-16T22:49:28.867Z,157.63
2018-12-16T22:51:57.927Z,152.33
2018-12-16T22:54:26.575Z,149.60
2018-12-16T22:56:55.383Z,144.27
2018-12-16T22:59:24.064Z,154.27
2018-12-16T23:01:52.982Z,143.40
2018-12-16T23:04:21.565Z,142.00
2018-12-16T23:06:50.465Z,141.27
2018-12-16T23:09:19.079Z,134.40
2018-12-16T23:11:47.929Z,147.70
2018-12-16T23:14:16.487Z,164.17
2018-12-16T23:16:45.320Z,212.47
2018-12-16T23:19:13.875Z,181.97
2018-12-16T23:21:42.635Z,196.93
2018-12-16T23:24:11.217Z,167.37
2018-12-16T23:26:40.082Z,161.17
2018-12-16T23:29:08.606Z,171.40
2018-12-16T23:31:37.677Z,192.33
2018-12-16T23:34:06.256Z,185.30
2018-12-16T23:36:35.163Z,194.53
2018-12-16T23:39:04.139Z,190.43
2018-12-16T23:41:33.144Z,156.87
2018-12-16T23:44:01.719Z,142.53
2018-12-16T23:46:30.633Z,138.17
2018-12-16T23:48:59.173Z,137.80
2018-12-16T23:51:28.014Z,128.30
2018-12-16T23:53:56.595Z,132.70
2018-12-16T23:56:25.603Z,121.33
2018-12-16T23:58:54.158Z,136.20
